Time;durP1;ratioP1;P1;durP2;ratioP2;P2;SDS_P1;SDS_P2;PMS_P1;PMS_P2;Temp;Humidity;BMP_temperature;BMP_pressure;BME280_temperature;BME280_humidity;BME280_pressure;Samples;Min_cycle;Max_cycle;Signal;HPM_P1;HPM_P2
2024/01/15 00:00:23;;;;;;;5.70;4.43;;;;;;;1.28;87.01;94294.66;5048026;28;20205;-87
2024/01/15 00:02:58;;;;;;;7.03;4.70;;;;;;;1.30;86.88;94285.97;5061075;28;20208;-87
2024/01/15 00:05:32;;;;;;;6.53;4.23;;;;;;;1.29;87.10;94281.06;5068022;28;20203;-86
2024/01/15 00:08:10;;;;;;;6.20;4.27;;;;;;;1.24;87.24;94286.56;5062086;28;20743;-86
2024/01/15 00:10:45;;;;;;;6.23;4.70;;;;;;;1.30;86.96;94288.50;5048095;28;20209;-87
2024/01/15 00:13:21;;;;;;;5.63;4.30;;;;;;;1.28;86.95;94292.94;5048818;28;20205;-87
2024/01/15 00:15:57;;;;;;;4.87;4.00;;;;;;;1.31;86.81;94292.63;5047729;28;20204;-87
2024/01/15 00:18:31;;;;;;;6.77;4.53;;;;;;;1.31;86.48;94277.41;5056386;28;20247;-86
2024/01/15 00:21:17;;;;;;;7.37;5.03;;;;;;;1.27;86.51;94280.41;5055580;28;20192;-87
2024/01/15 00:23:44;;;;;;;8.93;5.13;;;;;;;1.28;86.50;94299.75;5069187;28;20284;-87
2024/01/15 00:26:16;;;;;;;6.00;4.53;;;;;;;1.22;86.55;94303.66;5071268;28;20205;-86
2024/01/15 00:28:54;;;;;;;7.90;4.90;;;;;;;1.21;86.59;94298.75;5070866;28;20224;-86
2024/01/15 00:31:31;;;;;;;6.87;4.90;;;;;;;1.22;86.87;94302.88;5071633;28;20232;-86
2024/01/15 00:34:04;;;;;;;7.43;5.00;;;;;;;1.20;86.89;94315.69;5069849;28;20295;-86
2024/01/15 00:36:41;;;;;;;8.27;5.60;;;;;;;1.21;87.06;94321.56;5070663;28;20212;-86
2024/01/15 00:39:19;;;;;;;6.53;5.00;;;;;;;1.23;86.74;94323.00;5070617;28;20220;-87
2024/01/15 00:41:51;;;;;;;8.83;4.67;;;;;;;1.17;86.71;94317.72;5070154;28;20208;-86
2024/01/15 00:44:26;;;;;;;8.73;5.17;;;;;;;1.18;86.72;94327.72;5070816;28;20209;-85
2024/01/15 00:47:10;;;;;;;8.37;5.50;;;;;;;1.15;86.12;94306.97;5070511;28;20200;-86
2024/01/15 00:49:39;;;;;;;5.77;4.73;;;;;;;1.19;85.35;94303.16;5067971;28;20225;-85
2024/01/15 00:52:16;;;;;;;6.93;5.23;;;;;;;1.23;85.14;94296.84;5067636;28;20201;-86
2024/01/15 00:54:47;;;;;;;8.00;5.17;;;;;;;1.18;84.29;94282.09;5070760;28;20205;-86
2024/01/15 00:57:23;;;;;;;7.07;5.43;;;;;;;1.16;83.85;94260.38;5050576;28;20236;-86
2024/01/15 00:59:55;;;;;;;7.73;5.77;;;;;;;1.19;83.78;94276.09;5050203;28;20221;-86
2024/01/15 01:02:31;;;;;;;8.77;6.23;;;;;;;1.08;82.56;94247.69;5050410;28;20197;-87
2024/01/15 01:05:01;;;;;;;9.60;6.30;;;;;;;1.01;82.49;94235.63;5050593;28;20997;-86
2024/01/15 01:07:28;;;;;;;8.93;6.67;;;;;;;0.96;81.09;94206.63;5065151;28;20225;-86
2024/01/15 01:09:56;;;;;;;9.97;7.43;;;;;;;0.85;80.84;94187.41;5070107;28;20252;-86
2024/01/15 01:12:22;;;;;;;10.73;7.53;;;;;;;0.76;80.47;94172.34;5052163;28;20194;-86
2024/01/15 01:14:49;;;;;;;11.63;7.50;;;;;;;0.78;79.34;94132.44;5050463;28;20201;-86
2024/01/15 01:17:21;;;;;;;10.33;7.13;;;;;;;0.72;77.81;94080.69;5068529;28;20705;-86
2024/01/15 01:19:55;;;;;;;9.37;7.13;;;;;;;0.69;77.20;94056.44;5051334;28;20605;-87
2024/01/15 01:22:32;;;;;;;10.63;7.30;;;;;;;0.70;76.39;94031.91;5054185;28;20193;-86
2024/01/15 01:25:08;;;;;;;8.73;6.63;;;;;;;0.63;75.81;94011.47;5069881;28;20607;-86
2024/01/15 01:27:38;;;;;;;10.57;7.03;;;;;;;0.61;75.22;93979.66;5070006;28;20763;-87
2024/01/15 01:30:13;;;;;;;10.27;7.20;;;;;;;0.59;74.51;93946.91;5069714;28;20278;-86
2024/01/15 01:32:45;;;;;;;9.50;6.37;;;;;;;0.56;74.55;93956.56;5069802;28;20193;-87
2024/01/15 01:35:21;;;;;;;11.63;7.47;;;;;;;0.55;74.20;93950.72;5069412;28;20223;-86
2024/01/15 01:37:53;;;;;;;10.47;7.23;;;;;;;0.44;74.42;93957.78;5069554;28;20594;-87
2024/01/15 01:40:37;;;;;;;8.53;6.60;;;;;;;0.39;74.22;93943.06;5069537;28;20208;-86
2024/01/15 01:43:05;;;;;;;8.87;6.47;;;;;;;0.44;74.31;93940.88;5069715;28;20212;-86
2024/01/15 01:45:40;;;;;;;10.50;7.20;;;;;;;0.42;73.68;93924.25;5069777;28;20579;-87
2024/01/15 01:48:11;;;;;;;9.33;6.80;;;;;;;0.40;73.68;93932.00;5069675;28;20227;-87
2024/01/15 01:50:48;;;;;;;9.20;6.47;;;;;;;0.33;73.92;93929.31;5068758;28;20205;-87
2024/01/15 01:53:25;;;;;;;8.17;6.13;;;;;;;0.24;73.58;93915.03;5067395;28;20235;-87
2024/01/15 01:55:58;;;;;;;8.23;6.20;;;;;;;0.28;73.33;93887.69;5067877;28;20208;-86
2024/01/15 01:58:33;;;;;;;8.03;5.97;;;;;;;0.30;73.18;93891.66;5051353;28;20232;-86
2024/01/15 02:01:06;;;;;;;6.87;5.40;;;;;;;0.34;72.98;93882.00;5049099;28;20207;-86
2024/01/15 02:03:45;;;;;;;8.30;6.23;;;;;;;0.30;72.93;93888.31;5049059;28;20217;-86
2024/01/15 02:06:18;;;;;;;8.17;5.60;;;;;;;0.32;72.84;93889.75;5049098;28;20208;-86
2024/01/15 02:08:55;;;;;;;8.27;5.97;;;;;;;0.35;73.06;93903.84;5048595;28;20239;-86
2024/01/15 02:11:27;;;;;;;8.83;6.13;;;;;;;0.30;72.71;93896.72;5058560;28;20584;-87
2024/01/15 02:13:58;;;;;;;9.20;6.07;;;;;;;0.35;72.88;93908.91;5057402;28;20231;-87
2024/01/15 02:16:25;;;;;;;8.33;6.10;;;;;;;0.36;72.42;93897.84;5048825;28;20205;-87
2024/01/15 02:18:51;;;;;;;9.50;6.63;;;;;;;0.34;72.31;93899.72;5048753;28;20749;-86
2024/01/15 02:21:18;;;;;;;9.00;6.20;;;;;;;0.37;72.24;93881.69;5048798;28;20295;-86
2024/01/15 02:23:48;;;;;;;10.27;6.37;;;;;;;0.27;72.39;93881.84;5048895;28;20205;-87
2024/01/15 02:26:18;;;;;;;9.50;6.40;;;;;;;0.28;72.27;93882.63;5049562;28;20202;-87
2024/01/15 02:28:54;;;;;;;8.57;6.17;;;;;;;0.26;72.30;93879.47;5068359;28;20255;-87
2024/01/15 02:31:29;;;;;;;10.20;6.80;;;;;;;0.30;72.32;93888.31;5068466;28;20693;-87
2024/01/15 02:34:05;;;;;;;8.63;6.50;;;;;;;0.29;72.09;93886.75;5068561;28;20305;-87
2024/01/15 02:36:34;;;;;;;8.83;5.73;;;;;;;0.31;72.20;93889.91;5068840;28;20200;-87
2024/01/15 02:39:11;;;;;;;8.97;6.43;;;;;;;0.29;71.82;93882.47;5068279;28;20221;-86
2024/01/15 02:41:42;;;;;;;10.13;6.83;;;;;;;0.26;71.77;93884.53;5068143;28;20212;-87
2024/01/15 02:44:15;;;;;;;8.57;5.70;;;;;;;0.26;71.96;93890.38;5066375;28;20280;-87
2024/01/15 02:46:52;;;;;;;8.10;6.33;;;;;;;0.25;72.04;93901.44;5067980;28;20211;-87
2024/01/15 02:49:24;;;;;;;9.87;6.90;;;;;;;0.22;72.30;93901.75;5066315;28;20232;-87
2024/01/15 02:51:56;;;;;;;9.47;7.10;;;;;;;0.21;72.31;93900.16;5068290;28;20200;-87
2024/01/15 02:54:30;;;;;;;8.27;6.10;;;;;;;0.17;72.64;93903.19;5067958;28;20200;-87
2024/01/15 02:57:07;;;;;;;8.83;6.33;;;;;;;0.12;72.50;93916.28;5068295;28;20211;-87
2024/01/15 02:59:39;;;;;;;10.43;6.73;;;;;;;0.05;72.82;93929.69;5066398;28;20222;-87
2024/01/15 03:02:12;;;;;;;9.23;6.30;;;;;;;0.05;72.94;93948.19;5068233;28;20674;-87
2024/01/15 03:04:46;;;;;;;10.27;6.53;;;;;;;0.04;73.02;93944.06;5068128;28;20212;-87
2024/01/15 03:07:20;;;;;;;8.90;5.77;;;;;;;0.13;73.16;93950.75;5068480;28;20228;-87
2024/01/15 03:09:57;;;;;;;9.67;6.50;;;;;;;0.14;72.95;93944.75;5059111;28;20229;-87
2024/01/15 03:12:30;;;;;;;9.57;6.83;;;;;;;0.13;72.60;93922.13;5050158;28;20689;-87
2024/01/15 03:14:58;;;;;;;9.13;5.67;;;;;;;0.15;72.78;93927.84;5049224;28;20231;-87
2024/01/15 03:17:24;;;;;;;9.00;5.90;;;;;;;0.22;72.40;93926.25;5068589;28;20205;-87
2024/01/15 03:19:51;;;;;;;7.70;5.63;;;;;;;0.20;72.86;93933.22;5068096;28;20219;-88
2024/01/15 03:22:17;;;;;;;9.40;6.10;;;;;;;0.25;72.53;93903.97;5067883;28;20209;-86
2024/01/15 03:24:48;;;;;;;9.20;5.63;;;;;;;0.16;71.92;93912.50;5067496;28;20208;-87
2024/01/15 03:27:24;;;;;;;9.17;5.83;;;;;;;0.20;71.83;93895.25;5067939;28;20211;-87
2024/01/15 03:29:53;;;;;;;7.97;5.57;;;;;;;0.25;71.97;93888.00;5067773;28;20224;-87
2024/01/15 03:32:28;;;;;;;8.17;5.77;;;;;;;0.25;71.65;93881.19;5066487;28;20207;-87
2024/01/15 03:35:00;;;;;;;8.33;6.03;;;;;;;0.24;71.90;93881.34;5067916;28;20216;-87
2024/01/15 03:37:36;;;;;;;9.47;6.40;;;;;;;0.21;71.76;93877.38;5068197;28;20212;-88
2024/01/15 03:40:22;;;;;;;7.90;5.57;;;;;;;0.27;71.64;93896.22;5067631;28;20253;-87
2024/01/15 03:42:48;;;;;;;8.50;6.23;;;;;;;0.24;71.67;93888.94;5068159;28;20681;-87
2024/01/15 03:45:21;;;;;;;8.87;5.77;;;;;;;0.21;71.69;93895.09;5067818;28;20610;-87
2024/01/15 03:47:56;;;;;;;8.43;5.47;;;;;;;0.27;71.53;93886.09;5066819;28;20213;-87
2024/01/15 03:50:32;;;;;;;8.13;5.80;;;;;;;0.26;71.29;93882.78;5057956;28;20796;-87
2024/01/15 03:53:11;;;;;;;7.63;6.17;;;;;;;0.25;71.23;93870.28;5067357;28;20204;-86
2024/01/15 03:55:43;;;;;;;8.07;5.47;;;;;;;0.19;71.46;93859.03;5060874;28;20197;-87
2024/01/15 03:58:15;;;;;;;8.03;6.03;;;;;;;0.08;71.25;93868.66;5053706;28;20192;-87
2024/01/15 04:00:48;;;;;;;8.03;6.30;;;;;;;0.17;71.71;93871.06;5064340;28;20263;-87
2024/01/15 04:03:33;;;;;;;8.70;5.40;;;;;;;0.17;71.59;93867.75;5052820;28;20223;-87
2024/01/15 04:05:59;;;;;;;8.57;5.80;;;;;;;0.16;71.52;93856.84;5066550;28;20787;-87
2024/01/15 04:08:33;;;;;;;7.93;5.70;;;;;;;0.27;71.52;93866.66;5051141;28;20606;-87
2024/01/15 04:11:10;;;;;;;9.17;6.20;;;;;;;0.19;71.18;93848.16;5051316;28;20201;-87
2024/01/15 04:13:45;;;;;;;9.03;5.33;;;;;;;0.24;71.33;93851.78;5051363;28;20276;-87
2024/01/15 04:16:21;;;;;;;7.57;5.27;;;;;;;0.26;71.23;93857.47;5050590;28;20209;-87
2024/01/15 04:18:56;;;;;;;10.07;6.53;;;;;;;0.23;71.57;93842.59;5051828;28;20732;-87
2024/01/15 04:21:24;;;;;;;6.23;4.80;;;;;;;0.20;71.49;93854.75;5067707;28;20693;-87
2024/01/15 04:24:00;;;;;;;8.47;5.63;;;;;;;0.20;71.52;93852.25;5071499;28;20201;-87
2024/01/15 04:26:37;;;;;;;9.53;6.13;;;;;;;0.22;71.75;93852.88;5060727;28;20188;-87
2024/01/15 04:29:12;;;;;;;7.33;5.67;;;;;;;0.20;71.69;93863.16;5057364;28;20232;-88
2024/01/15 04:31:48;;;;;;;7.03;5.23;;;;;;;0.15;71.29;93855.25;5051700;28;20670;-88
2024/01/15 04:34:28;;;;;;;9.27;5.70;;;;;;;0.17;71.36;93860.16;5066590;28;20201;-87
2024/01/15 04:36:57;;;;;;;10.13;5.50;;;;;;;0.20;71.31;93847.19;5069067;28;20200;-87
2024/01/15 04:39:35;;;;;;;7.97;5.63;;;;;;;0.25;71.04;93840.72;5070819;28;20224;-88
2024/01/15 04:42:13;;;;;;;6.93;4.97;;;;;;;0.37;70.68;93840.41;5071368;28;20200;-87
2024/01/15 04:44:42;;;;;;;7.03;5.17;;;;;;;0.33;70.63;93828.06;5071264;28;20563;-87
2024/01/15 04:47:09;;;;;;;7.47;5.20;;;;;;;0.32;70.59;93803.72;5065335;28;20659;-88
2024/01/15 04:49:46;;;;;;;7.47;5.30;;;;;;;0.24;70.65;93806.22;5050412;28;20588;-87
2024/01/15 04:52:12;;;;;;;8.73;4.90;;;;;;;0.28;70.80;93827.75;5064938;28;20698;-87
2024/01/15 04:54:39;;;;;;;7.17;4.97;;;;;;;0.24;71.00;93820.63;5066049;28;20212;-88
2024/01/15 04:57:07;;;;;;;7.97;5.50;;;;;;;0.27;70.85;93833.75;5051621;28;20198;-87
2024/01/15 04:59:36;;;;;;;7.90;4.77;;;;;;;0.23;70.95;93851.94;5050680;28;20320;-87
2024/01/15 05:02:03;;;;;;;6.43;4.90;;;;;;;0.27;71.12;93856.53;5059018;28;20221;-88
2024/01/15 05:04:44;;;;;;;7.60;4.90;;;;;;;0.29;71.10;93853.84;5065389;28;20266;-87
2024/01/15 05:07:11;;;;;;;6.43;4.60;;;;;;;0.21;71.41;93852.09;5065734;28;20216;-88
2024/01/15 05:09:37;;;;;;;7.17;4.90;;;;;;;0.19;71.34;93846.38;5068151;28;20228;-87
2024/01/15 05:12:19;;;;;;;6.37;4.67;;;;;;;0.23;71.21;93867.09;5055609;28;20578;-87
2024/01/15 05:14:58;;;;;;;7.70;4.87;;;;;;;0.30;71.38;93863.03;5047922;28;20571;-88
2024/01/15 05:17:30;;;;;;;6.47;4.57;;;;;;;0.29;70.91;93846.25;5055701;28;20326;-87
2024/01/15 05:20:05;;;;;;;6.60;4.97;;;;;;;0.32;71.25;93861.13;5056181;28;20761;-87
2024/01/15 05:22:39;;;;;;;6.50;4.70;;;;;;;0.29;71.06;93854.63;5062224;28;20224;-88
2024/01/15 05:25:21;;;;;;;7.27;4.77;;;;;;;0.28;71.41;93867.44;5061231;28;20189;-87
2024/01/15 05:27:51;;;;;;;5.03;4.50;;;;;;;0.22;70.99;93853.66;5070506;28;20208;-87
2024/01/15 05:36:24;;;;;;;6.77;4.60;;;;;;;0.18;71.22;93856.69;5070230;28;20215;-87
2024/01/15 05:38:57;;;;;;;7.20;4.80;;;;;;;0.12;71.38;93853.03;5070099;28;20220;-87
2024/01/15 05:41:44;;;;;;;7.90;4.93;;;;;;;0.21;71.13;93851.28;5068910;28;20194;-87
2024/01/15 05:44:12;;;;;;;5.83;4.37;;;;;;;0.26;70.89;93834.69;5069853;28;20224;-87
2024/01/15 05:47:03;;;;;;;7.00;4.97;;;;;;;0.32;70.69;93830.75;5069702;28;20552;-87
2024/01/15 05:49:45;;;;;;;6.10;4.57;;;;;;;0.38;71.01;93855.44;5069215;28;20221;-87
2024/01/15 05:52:50;;;;;;;7.07;4.77;;;;;;;0.30;70.63;93833.44;5067596;28;20254;-87
2024/01/15 05:55:20;;;;;;;6.27;4.33;;;;;;;0.29;70.77;93841.97;5026295;28;20189;-87
2024/01/15 05:58:04;;;;;;;6.97;4.97;;;;;;;0.27;70.59;93826.16;5060020;28;20208;-87
2024/01/15 06:00:38;;;;;;;6.57;4.63;;;;;;;0.25;70.85;93820.47;5054749;28;20208;-87
2024/01/15 06:03:30;;;;;;;6.67;4.70;;;;;;;0.27;70.67;93830.44;5069825;28;20200;-88
2024/01/15 06:06:02;;;;;;;6.93;4.73;;;;;;;0.28;70.47;93810.03;5069704;28;20201;-89
2024/01/15 06:08:36;;;;;;;7.20;4.70;;;;;;;0.23;70.59;93819.81;5069152;28;20232;-87
2024/01/15 06:11:06;;;;;;;6.97;4.90;;;;;;;0.26;70.50;93806.06;5068927;28;20201;-87
2024/01/15 06:13:33;;;;;;;8.30;5.00;;;;;;;0.27;70.04;93795.78;5067619;28;20229;-87
2024/01/15 06:16:14;;;;;;;4.03;3.63;;;;;;;0.20;70.31;93789.78;5068884;28;20208;-87
2024/01/15 06:18:45;;;;;;;5.93;4.33;;;;;;;0.28;70.28;93799.91;5068712;28;20251;-88
2024/01/15 06:21:17;;;;;;;7.10;4.50;;;;;;;0.33;70.09;93791.84;5068356;28;20232;-88
2024/01/15 06:23:53;;;;;;;5.47;4.27;;;;;;;0.41;69.79;93785.97;5069417;28;20205;-86
2024/01/15 06:26:31;;;;;;;7.20;4.37;;;;;;;0.33;69.27;93769.88;5068718;28;20200;-87
2024/01/15 06:29:11;;;;;;;6.13;4.40;;;;;;;0.22;69.92;93779.50;5066791;28;20227;-86
2024/01/15 06:31:50;;;;;;;5.97;4.43;;;;;;;0.23;69.90;93784.41;5067204;28;20551;-87
2024/01/15 06:34:21;;;;;;;5.47;4.10;;;;;;;0.28;69.73;93783.94;5069503;28;20197;-87
2024/01/15 06:36:56;;;;;;;6.07;4.50;;;;;;;0.28;69.73;93783.94;5068914;28;20215;-87
2024/01/15 06:39:29;;;;;;;6.90;4.23;;;;;;;0.28;69.88;93778.88;5069357;28;20224;-87
2024/01/15 06:42:17;;;;;;;5.60;4.00;;;;;;;0.26;69.99;93783.31;5068755;28;20678;-87
2024/01/15 06:44:43;;;;;;;7.43;3.90;;;;;;;0.24;70.11;93797.84;4964389;28;20208;-87
2024/01/15 06:47:19;;;;;;;10.53;5.43;;;;;;;0.24;69.98;93800.38;4957645;28;20215;-87
2024/01/15 06:49:56;;;;;;;7.20;4.70;;;;;;;0.20;70.17;93804.16;5048109;28;20224;-88
2024/01/15 06:52:30;;;;;;;6.67;4.60;;;;;;;0.19;70.43;93815.25;5048190;28;20197;-87
2024/01/15 06:55:11;;;;;;;6.23;4.43;;;;;;;0.27;70.12;93810.19;5058111;28;20200;-86
2024/01/15 06:57:44;;;;;;;6.17;4.40;;;;;;;0.25;70.03;93807.03;5048401;28;20205;-86
2024/01/15 07:00:20;;;;;;;7.00;4.43;;;;;;;0.26;70.29;93824.56;5048035;28;20308;-87
2024/01/15 07:02:51;;;;;;;7.07;4.80;;;;;;;0.27;70.04;93808.44;5066283;28;20196;-86
2024/01/15 07:05:34;;;;;;;7.50;4.50;;;;;;;0.30;70.50;93822.53;5068791;28;20247;-87
2024/01/15 07:08:07;;;;;;;6.93;4.60;;;;;;;0.31;70.00;93814.00;5068129;28;20211;-86
2024/01/15 07:10:55;;;;;;;6.90;4.50;;;;;;;0.26;70.38;93819.50;5065646;28;20220;-87
2024/01/15 07:13:22;;;;;;;6.47;4.70;;;;;;;0.34;70.54;93826.34;5028076;28;20577;-86
2024/01/15 07:15:53;;;;;;;6.60;4.40;;;;;;;0.37;70.57;93808.31;5047992;28;20204;-87
2024/01/15 07:18:28;;;;;;;5.93;4.50;;;;;;;0.45;70.59;93807.50;5061575;28;20225;-87
2024/01/15 07:21:04;;;;;;;6.83;4.97;;;;;;;0.47;70.17;93813.19;5068440;28;20212;-87
2024/01/15 07:23:45;;;;;;;6.00;4.50;;;;;;;0.45;70.46;93812.56;5068343;28;20824;-88
2024/01/15 07:26:11;;;;;;;8.27;5.13;;;;;;;0.38;70.60;93809.09;5068151;28;20210;-87
2024/01/15 07:28:50;;;;;;;7.03;4.63;;;;;;;0.28;71.30;93829.47;5068310;28;20585;-88
2024/01/15 07:31:25;;;;;;;6.57;4.60;;;;;;;0.20;71.59;93852.25;5069349;28;20271;-88
2024/01/15 07:33:54;;;;;;;6.37;4.77;;;;;;;0.20;71.99;93883.38;5070659;28;20235;-88
2024/01/15 07:36:24;;;;;;;8.20;5.93;;;;;;;0.22;72.10;93894.16;5071607;28;20250;-88
2024/01/15 07:41:36;;;;;;;6.03;4.63;;;;;;;0.26;72.32;93912.34;5070359;28;20204;-88
2024/01/15 07:46:51;;;;;;;6.43;5.07;;;;;;;0.34;72.56;93919.97;5052521;28;20197;-88
2024/01/15 07:49:44;;;;;;;8.93;4.97;;;;;;;0.45;72.42;93903.69;5059117;28;20747;-84
2024/01/15 07:52:53;;;;;;;6.20;4.57;;;;;;;0.47;72.61;93929.63;5070862;28;20197;-86
2024/01/15 07:55:20;;;;;;;6.90;4.70;;;;;;;0.35;72.78;93921.56;4967838;28;20323;-85
2024/01/15 07:57:48;;;;;;;7.30;4.77;;;;;;;0.28;73.00;93944.16;5052341;28;20228;-86
2024/01/15 08:00:21;;;;;;;8.43;5.13;;;;;;;0.23;73.53;93960.75;5052389;28;20218;-85
2024/01/15 08:02:59;;;;;;;7.43;4.77;;;;;;;0.30;73.94;93969.31;5051185;28;20201;-87
2024/01/15 08:05:35;;;;;;;7.00;4.83;;;;;;;0.36;73.50;93938.31;5053411;28;20224;-87
2024/01/15 08:09:05;;;;;;;;;;;;;;;;;;;;;
2024/01/15 08:12:30;;;;;;;;;;;;;;;;;;;;;
2024/01/15 08:26:32;;;;;;;7.40;4.97;;;;;;;0.52;72.34;93875.06;5021943;28;20202;-87
2024/01/15 08:29:09;;;;;;;6.00;4.73;;;;;;;0.55;71.79;93854.50;5031337;28;20280;-87
2024/01/15 08:31:50;;;;;;;6.07;4.30;;;;;;;0.57;71.60;93851.81;5031059;28;20226;-88
2024/01/15 08:34:20;;;;;;;7.03;4.60;;;;;;;0.61;71.13;93842.94;5031052;28;20415;-89
2024/01/15 08:37:00;;;;;;;5.80;4.37;;;;;;;0.63;71.16;93848.63;5032040;28;20220;-87
2024/01/15 08:39:38;;;;;;;7.80;4.40;;;;;;;0.57;71.18;93846.75;5029476;28;20317;-88
2024/01/15 08:42:07;;;;;;;7.00;4.90;;;;;;;0.57;71.24;93823.97;5030141;28;20235;-88
2024/01/15 08:44:34;;;;;;;6.87;4.60;;;;;;;0.62;71.03;93840.25;5030238;28;20241;-88
2024/01/15 08:47:14;;;;;;;5.63;4.10;;;;;;;0.61;71.05;93823.47;5030395;28;20249;-88
2024/01/15 08:50:02;;;;;;;6.30;4.13;;;;;;;0.60;71.38;93832.00;5029930;28;20224;-88
2024/01/15 08:52:41;;;;;;;6.07;4.30;;;;;;;0.62;71.33;93847.84;5000779;28;20216;-89
2024/01/15 08:55:12;;;;;;;5.67;4.50;;;;;;;0.61;71.34;93846.25;5026008;28;20217;-87
2024/01/15 08:57:43;;;;;;;5.67;4.47;;;;;;;0.61;71.57;93869.03;5028252;28;20202;-88
2024/01/15 09:00:17;;;;;;;9.83;4.83;;;;;;;0.69;71.71;93893.59;5030322;28;20222;-88
2024/01/15 09:02:57;;;;;;;7.87;6.07;;;;;;;0.71;71.71;93891.69;5030843;28;20210;-88
2024/01/15 09:05:29;;;;;;;7.37;5.10;;;;;;;0.73;71.87;93894.06;5030468;28;20221;-87
2024/01/15 09:08:02;;;;;;;7.47;5.27;;;;;;;0.76;71.73;93874.28;5031243;28;20259;-90
2024/01/15 09:10:30;;;;;;;7.03;5.00;;;;;;;0.85;71.63;93869.97;5029622;28;20223;-88
2024/01/15 09:13:00;;;;;;;6.37;4.70;;;;;;;0.79;71.42;93858.75;5030666;28;20193;-88
2024/01/15 09:15:40;;;;;;;6.80;5.00;;;;;;;0.77;71.40;93870.00;5030554;28;20206;-88
2024/01/15 09:18:07;;;;;;;6.13;4.83;;;;;;;0.84;71.64;93876.00;5030894;28;20281;-88
2024/01/15 09:20:34;;;;;;;6.90;4.83;;;;;;;0.87;71.48;93870.63;5030212;28;20256;-87
2024/01/15 09:23:00;;;;;;;5.77;4.80;;;;;;;0.97;71.31;93869.50;5019293;28;20240;-88
2024/01/15 09:25:38;;;;;;;5.63;4.60;;;;;;;0.93;71.36;93859.84;5030219;28;20229;-88
2024/01/15 09:28:05;;;;;;;8.87;5.90;;;;;;;0.91;71.03;93849.88;5028975;28;20611;-87
2024/01/15 09:30:33;;;;;;;7.77;5.67;;;;;;;0.95;71.30;93868.09;5029984;28;20238;-88
2024/01/15 09:33:19;;;;;;;6.23;4.50;;;;;;;0.96;70.70;93844.34;5030814;28;20232;-88
2024/01/15 09:35:49;;;;;;;5.57;3.87;;;;;;;0.85;70.39;93819.31;5029998;28;20222;-89
2024/01/15 09:38:18;;;;;;;5.90;4.67;;;;;;;0.87;70.38;93815.69;5030465;28;20206;-89
2024/01/15 09:43:27;;;;;;;6.07;4.17;;;;;;;1.07;70.02;93800.91;4967295;28;20204;-87
2024/01/15 09:45:54;;;;;;;5.73;3.90;;;;;;;1.02;69.77;93798.88;5029280;28;20199;-87
2024/01/15 09:48:22;;;;;;;5.60;4.37;;;;;;;1.09;69.76;93788.09;5029903;28;20206;-88
2024/01/15 09:51:04;;;;;;;4.97;3.57;;;;;;;1.08;69.49;93771.31;5029114;28;20631;-88
2024/01/15 09:53:31;;;;;;;5.93;4.37;;;;;;;1.09;68.84;93760.22;5029607;28;20205;-88
2024/01/15 09:55:59;;;;;;;5.27;3.73;;;;;;;1.10;68.26;93713.66;5020312;28;20209;-87
2024/01/15 09:58:29;;;;;;;4.13;3.47;;;;;;;1.11;68.36;93710.16;5012702;28;20222;-89
2024/01/15 10:01:05;;;;;;;5.40;3.87;;;;;;;1.10;67.53;93680.72;5028965;28;20202;-86
2024/01/15 10:03:32;;;;;;;4.97;3.53;;;;;;;1.10;67.45;93668.84;5029183;28;20193;-89
2024/01/15 10:06:00;;;;;;;5.70;3.87;;;;;;;1.11;67.46;93649.34;5029127;28;20905;-88
2024/01/15 10:08:27;;;;;;;4.87;3.40;;;;;;;1.13;67.75;93655.03;5029160;28;20241;-88
2024/01/15 10:10:53;;;;;;;4.83;3.60;;;;;;;1.30;69.04;93760.44;5031366;28;20612;-87
2024/01/15 10:13:29;;;;;;;4.40;3.47;;;;;;;1.35;67.79;93672.78;5029237;28;20264;-88
2024/01/15 10:15:55;;;;;;;4.70;3.90;;;;;;;1.46;67.33;93655.63;5027708;28;20205;-87
2024/01/15 10:18:22;;;;;;;4.67;3.60;;;;;;;1.42;67.22;93641.72;5016864;28;20237;-88
2024/01/15 10:20:49;;;;;;;4.30;3.67;;;;;;;1.35;66.81;93617.03;5028976;28;20194;-88
2024/01/15 10:23:16;;;;;;;5.03;3.27;;;;;;;1.27;66.90;93591.75;5029347;28;20702;-87
2024/01/15 10:26:04;;;;;;;6.00;4.30;;;;;;;1.31;67.39;93631.03;5029229;28;20329;-88
2024/01/15 10:28:32;;;;;;;4.40;3.33;;;;;;;1.39;67.26;93622.56;5029496;28;20218;-87
2024/01/15 10:31:15;;;;;;;4.23;3.27;;;;;;;1.39;66.75;93603.06;5027239;28;20935;-88
2024/01/15 10:33:42;;;;;;;5.17;3.30;;;;;;;1.44;67.14;93589.09;5029164;28;20210;-87
2024/01/15 10:36:11;;;;;;;4.67;3.27;;;;;;;1.46;67.02;93592.25;5028951;28;20713;-88
2024/01/15 10:38:37;;;;;;;5.57;3.50;;;;;;;1.57;66.56;93589.31;5028077;28;20218;-87
2024/01/15 10:41:11;;;;;;;4.53;3.20;;;;;;;1.62;66.62;93582.78;5028056;28;20193;-89
2024/01/15 10:43:41;;;;;;;5.30;3.10;;;;;;;1.70;66.39;93579.38;5029132;28;20202;-88
2024/01/15 10:46:07;;;;;;;4.90;3.60;;;;;;;1.71;66.33;93578.44;5028368;28;20233;-88
2024/01/15 10:48:35;;;;;;;5.30;3.20;;;;;;;1.74;66.48;93583.13;5026869;28;20252;-88
2024/01/15 10:51:12;;;;;;;;;;;;;;;;;;;;;
2024/01/15 10:53:40;;;;;;;4.10;3.10;;;;;;;1.77;67.16;93599.75;5028601;28;20197;-88
2024/01/15 10:56:08;;;;;;;4.27;3.43;;;;;;;1.84;66.49;93581.16;5029201;28;20213;-89
2024/01/15 10:58:35;;;;;;;5.23;3.20;;;;;;;1.76;66.45;93566.00;5028369;28;20222;-89
2024/01/15 11:01:07;;;;;;;4.40;3.07;;;;;;;1.60;67.08;93578.81;5028567;28;20587;-89
2024/01/15 11:03:40;;;;;;;4.97;3.63;;;;;;;1.72;67.38;93607.91;5026604;28;20821;-88
2024/01/15 11:06:38;;;;;;;8.47;3.40;;;;;;;1.73;67.66;93633.06;5027855;28;20206;-89
2024/01/15 11:09:05;;;;;;;5.07;3.70;;;;;;;1.91;67.80;93637.06;5029011;28;20264;-89
2024/01/15 11:11:36;;;;;;;3.93;3.33;;;;;;;2.00;67.59;93625.88;5028710;28;20211;-88
2024/01/15 11:14:02;;;;;;;4.93;3.43;;;;;;;2.01;67.19;93613.03;5029033;28;20198;-88
2024/01/15 11:16:56;;;;;;;5.23;3.70;;;;;;;1.99;67.65;93621.75;5028205;28;20198;-88
2024/01/15 11:19:27;;;;;;;4.73;3.33;;;;;;;1.96;67.78;93629.72;5027647;28;20276;-86
2024/01/15 11:21:59;;;;;;;4.57;3.60;;;;;;;1.99;67.85;93654.75;5028802;28;20233;-86
2024/01/15 11:24:36;;;;;;;5.20;3.50;;;;;;;1.93;67.49;93641.00;5030304;28;20214;-86
2024/01/15 11:27:03;;;;;;;4.33;3.47;;;;;;;1.84;67.59;93624.28;5029030;28;20256;-87
2024/01/15 11:30:04;;;;;;;13.67;9.50;;;;;;;1.72;68.05;93643.41;5029350;28;20225;-87
2024/01/15 11:32:46;;;;;;;;;;;;;;;;;;;;;
2024/01/15 11:35:16;;;;;;;5.07;3.47;;;;;;;1.66;68.41;93644.09;5028634;28;20213;-88
2024/01/15 11:38:01;;;;;;;4.17;3.37;;;;;;;1.76;67.80;93631.94;5024061;28;20199;-88
2024/01/15 11:40:42;;;;;;;5.23;3.37;;;;;;;1.66;68.09;93632.19;5027946;28;20283;-87
2024/01/15 11:43:09;;;;;;;6.03;3.50;;;;;;;1.77;68.26;93638.59;5028461;28;20256;-87
2024/01/15 11:45:36;;;;;;;3.63;3.07;;;;;;;1.98;67.53;93620.19;5028479;28;20206;-88
2024/01/15 11:48:15;;;;;;;4.37;3.27;;;;;;;2.47;66.57;93592.56;5028269;28;20210;-87
2024/01/15 11:50:43;;;;;;;4.10;3.00;;;;;;;2.68;65.17;93513.09;5027365;28;20198;-88
2024/01/15 11:53:17;;;;;;;4.30;3.23;;;;;;;2.74;64.58;93459.00;5027011;28;20233;-87
2024/01/15 11:55:56;;;;;;;4.50;3.67;;;;;;;2.86;64.33;93437.25;5020573;28;20236;-87
2024/01/15 11:58:22;;;;;;;5.70;4.10;;;;;;;2.97;63.83;93423.25;5008600;28;20210;-87
2024/01/15 12:00:51;;;;;;;3.07;2.77;;;;;;;2.75;63.02;93361.50;5008082;28;20210;-87
2024/01/15 12:03:29;;;;;;;3.53;2.97;;;;;;;2.64;63.46;93367.09;5008688;28;20746;-88
2024/01/15 12:09:31;;;;;;;4.70;2.93;;;;;;;2.71;63.20;93360.31;5022699;28;20757;-87
2024/01/15 12:12:08;;;;;;;3.73;2.90;;;;;;;2.74;63.48;93375.97;5027238;28;20214;-88
2024/01/15 12:14:38;;;;;;;3.40;2.80;;;;;;;2.98;63.05;93349.38;5027953;28;20698;-87
2024/01/15 12:17:11;;;;;;;3.47;2.50;;;;;;;3.35;62.29;93312.63;5027789;28;20201;-87
2024/01/15 12:19:42;;;;;;;3.87;2.63;;;;;;;3.68;61.01;93244.06;5031332;28;20233;-87
2024/01/15 12:24:58;;;;;;;3.23;2.67;;;;;;;4.30;59.20;93115.66;5025854;28;20210;-88
2024/01/15 12:27:25;;;;;;;3.03;2.67;;;;;;;4.24;58.59;93042.59;5031210;28;20296;-88
2024/01/15 12:30:24;;;;;;;3.80;2.80;;;;;;;4.28;58.39;93013.19;5031114;28;20226;-88
2024/01/15 12:33:02;;;;;;;3.63;2.63;;;;;;;4.28;58.13;93015.75;5028406;28;20225;-88
2024/01/15 12:35:30;;;;;;;4.60;2.30;;;;;;;4.18;57.97;93010.31;5030888;28;20204;-89
2024/01/15 12:41:01;;;;;;;3.30;2.20;;;;;;;4.55;58.23;93036.03;5021936;28;20313;-88
2024/01/15 12:43:36;;;;;;;2.33;2.03;;;;;;;4.57;58.09;93036.63;5030844;28;20214;-87
2024/01/15 12:46:03;;;;;;;2.30;2.10;;;;;;;4.50;57.79;93018.81;5030178;28;20197;-88
2024/01/15 12:48:32;;;;;;;3.43;2.03;;;;;;;4.53;57.89;93028.59;5030904;28;20241;-88
2024/01/15 12:51:04;;;;;;;2.67;2.47;;;;;;;4.66;57.88;93027.75;5030375;28;20210;-87
2024/01/15 12:53:41;;;;;;;3.67;2.20;;;;;;;4.77;57.53;93011.84;5031314;28;20200;-87